Argonne, Minnesota
Current Conditions -  °F | °C
As of 12:27 PM on Friday 31 Oct 2014 (Local Time) from KLVN Reporting Station
Clear Clear  
Wind Chill: 27°   Ceiling: Unl
Heat Index: 34°   Visibility: 10mi
Dew Point: 18°   Wind: 8mph
Humidity: 52%   Direction: 10°N
Pressure: 30.54"   Gusts: NA
Location:  44.6349°N, 93.283°W
Report Text: KLVN 311727Z AUTO 01007KT 10SM CLR 01/M08 A3054 RMK AO2
Loading
Personal Weather Stations






























Interactive Weather Map
Tropical Storm Tracking
New forecast layout! Learn more

10-Day Weather Forecast

Advertisements
Track Severe Weather on mobile